Time;durP1;ratioP1;P1;durP2;ratioP2;P2;SDS_P1;SDS_P2;PMS_P1;PMS_P2;Temp;Humidity;BMP_temperature;BMP_pressure;BME280_temperature;BME280_humidity;BME280_pressure;Samples;Min_cycle;Max_cycle;Signal;HPM_P1;HPM_P2
2023/05/15 00:00:51;;;;;;;8.73;5.40;;;;;;;16.40;100.00;101107.69;5113593;28;20169;-79
2023/05/15 00:03:36;;;;;;;8.80;5.47;;;;;;;16.41;100.00;101112.97;5114369;28;20137;-79
2023/05/15 00:06:22;;;;;;;7.82;4.85;;;;;;;16.27;100.00;101122.25;5099493;28;20031;-78
2023/05/15 00:09:08;;;;;;;11.02;5.18;;;;;;;16.45;100.00;101121.66;5101080;28;20428;-78
2023/05/15 00:11:54;;;;;;;8.32;4.68;;;;;;;16.56;100.00;101122.97;5115384;28;20023;-78
2023/05/15 00:14:39;;;;;;;8.50;5.10;;;;;;;16.53;100.00;101116.94;5118518;28;20032;-78
2023/05/15 00:17:25;;;;;;;8.23;4.90;;;;;;;16.37;100.00;101111.31;5117793;28;20416;-78
2023/05/15 00:20:11;;;;;;;5.30;4.35;;;;;;;16.55;100.00;101094.81;5103208;28;20053;-78
2023/05/15 00:22:57;;;;;;;9.23;5.40;;;;;;;16.18;100.00;101086.41;5117086;28;20089;-79
2023/05/15 00:25:43;;;;;;;11.60;5.82;;;;;;;16.15;100.00;101083.88;5117887;28;20023;-79
2023/05/15 00:28:29;;;;;;;10.07;5.57;;;;;;;16.14;100.00;101073.34;5117139;28;20062;-78
2023/05/15 00:31:15;;;;;;;10.30;5.50;;;;;;;16.42;100.00;101075.00;5117531;28;20088;-79
2023/05/15 00:34:01;;;;;;;11.40;6.10;;;;;;;16.10;100.00;101066.44;5102834;28;20027;-79
2023/05/15 00:36:47;;;;;;;7.10;5.15;;;;;;;16.39;100.00;101064.50;5118308;28;20450;-79
2023/05/15 00:39:33;;;;;;;11.48;5.57;;;;;;;16.04;100.00;101056.94;5103288;28;20035;-79
2023/05/15 00:42:21;;;;;;;9.48;5.63;;;;;;;16.26;100.00;101042.06;5117531;28;20122;-78
2023/05/15 00:45:09;;;;;;;11.02;5.15;;;;;;;16.30;100.00;101033.09;5102448;28;20059;-79
2023/05/15 00:47:57;;;;;;;9.70;5.43;;;;;;;16.13;100.00;101039.91;5102355;28;20038;-79
2023/05/15 00:50:43;;;;;;;9.25;4.97;;;;;;;16.20;100.00;101031.69;5117042;28;20448;-79
2023/05/15 00:53:29;;;;;;;7.65;5.47;;;;;;;16.38;100.00;101030.16;5102971;28;20344;-79
2023/05/15 00:56:16;;;;;;;10.52;5.38;;;;;;;16.35;100.00;101025.84;5117031;28;20032;-79
2023/05/15 00:59:03;;;;;;;7.38;5.50;;;;;;;16.25;100.00;101026.25;5117256;28;20046;-79
2023/05/15 01:01:49;;;;;;;9.50;6.00;;;;;;;16.42;100.00;101024.75;5116633;28;20024;-78
2023/05/15 01:04:35;;;;;;;8.73;6.00;;;;;;;16.25;100.00;101024.47;5117456;28;20431;-79
2023/05/15 01:07:21;;;;;;;9.77;5.70;;;;;;;16.55;100.00;101020.75;5116910;28;20059;-79
2023/05/15 01:10:07;;;;;;;10.35;5.82;;;;;;;16.43;100.00;101015.06;5102026;28;20058;-78
2023/05/15 01:12:54;;;;;;;8.95;5.68;;;;;;;15.95;100.00;101014.13;5102094;28;20019;-80
2023/05/15 01:15:40;;;;;;;8.32;5.72;;;;;;;15.92;100.00;101008.94;5116566;28;20110;-79
2023/05/15 01:18:31;;;;;;;9.10;5.82;;;;;;;16.10;100.00;101000.34;5102353;28;20023;-79
2023/05/15 01:21:25;;;;;;;11.30;6.05;;;;;;;16.09;100.00;100982.78;5101271;28;20024;-78
2023/05/15 01:24:23;;;;;;;10.43;5.90;;;;;;;16.11;100.00;100965.09;5116978;28;20027;-80
2023/05/15 01:27:40;;;;;;;8.77;5.88;;;;;;;16.25;100.00;100954.84;5102144;28;20020;-79
2023/05/15 01:30:38;;;;;;;7.25;5.55;;;;;;;16.38;100.00;100959.66;5117799;27;20027;-79
2023/05/15 01:33:31;;;;;;;7.88;5.65;;;;;;;16.12;100.00;100964.16;5116615;28;20094;-79
2023/05/15 01:36:24;;;;;;;7.22;5.13;;;;;;;16.21;100.00;100967.34;5116181;28;20027;-79
2023/05/15 01:39:11;;;;;;;8.38;5.10;;;;;;;16.42;100.00;100974.50;5115833;28;20110;-79
2023/05/15 01:42:05;;;;;;;8.15;5.15;;;;;;;16.65;100.00;100971.88;5115840;28;20133;-79
2023/05/15 01:44:54;;;;;;;8.85;4.97;;;;;;;16.29;100.00;100964.41;5117991;27;20039;-80
2023/05/15 01:47:43;;;;;;;7.78;4.82;;;;;;;16.45;100.00;100973.53;5116574;28;20050;-79
2023/05/15 01:50:32;;;;;;;8.23;4.57;;;;;;;16.59;100.00;100976.53;5116045;28;20024;-79
2023/05/15 01:53:19;;;;;;;6.93;4.68;;;;;;;16.57;100.00;100975.72;5125166;28;20034;-78
2023/05/15 01:56:07;;;;;;;6.50;4.13;;;;;;;16.34;100.00;100979.19;5116213;28;20027;-79
2023/05/15 01:58:54;;;;;;;8.15;4.38;;;;;;;16.60;100.00;100991.47;5115889;28;20038;-78
2023/05/15 02:01:41;;;;;;;6.25;4.75;;;;;;;16.63;100.00;101000.16;5116969;27;20114;-79
2023/05/15 02:04:28;;;;;;;8.10;4.50;;;;;;;16.70;100.00;101000.78;5115730;28;20188;-79
2023/05/15 02:07:14;;;;;;;6.50;4.53;;;;;;;16.68;100.00;100998.19;5116017;28;20024;-79
2023/05/15 02:10:02;;;;;;;7.07;4.40;;;;;;;16.71;100.00;101003.38;5100764;28;20031;-79
2023/05/15 02:12:49;;;;;;;6.93;4.85;;;;;;;16.48;100.00;101010.47;5128865;28;20031;-79
2023/05/15 02:15:35;;;;;;;7.05;4.60;;;;;;;16.47;100.00;101019.31;5116222;28;20036;-79
2023/05/15 02:18:22;;;;;;;7.35;4.57;;;;;;;16.57;100.00;101015.41;5115272;28;20405;-79
2023/05/15 02:21:07;;;;;;;7.57;4.82;;;;;;;16.49;100.00;101031.56;5100872;28;20126;-79
2023/05/15 02:23:53;;;;;;;11.60;5.55;;;;;;;15.83;100.00;101044.44;5115409;28;20027;-79
2023/05/15 02:27:01;;;;;;;7.20;5.47;;;;;;;15.90;100.00;101067.13;5115397;28;20043;-78
2023/05/15 02:30:25;;;;;;;8.50;6.13;;;;;;;15.68;100.00;101073.16;5114680;28;20036;-79
2023/05/15 02:33:21;;;;;;;10.55;5.75;;;;;;;15.54;100.00;101081.53;5100770;28;20047;-79
2023/05/15 02:36:12;;;;;;;12.00;6.20;;;;;;;15.36;100.00;101065.41;5114341;28;20020;-79
2023/05/15 02:38:59;;;;;;;8.55;6.05;;;;;;;15.11;100.00;101028.31;5115147;28;20089;-79
2023/05/15 02:41:46;;;;;;;8.40;6.05;;;;;;;14.84;100.00;100977.25;5115697;28;20099;-79
2023/05/15 02:44:34;;;;;;;7.97;5.82;;;;;;;14.67;100.00;100958.44;5116221;28;20062;-79
2023/05/15 02:47:22;;;;;;;10.30;6.20;;;;;;;14.75;100.00;100998.63;5100421;28;20020;-79
2023/05/15 02:50:09;;;;;;;8.55;6.20;;;;;;;14.61;100.00;100999.94;5114739;28;20084;-79
2023/05/15 02:53:04;;;;;;;8.45;5.43;;;;;;;15.05;100.00;100972.22;5114976;28;20031;-79
2023/05/15 02:55:50;;;;;;;7.22;5.65;;;;;;;15.02;100.00;100986.38;5115075;28;20031;-80
2023/05/15 02:58:38;;;;;;;9.25;6.03;;;;;;;14.93;100.00;100988.44;5115257;28;20042;-79
2023/05/15 03:01:23;;;;;;;11.15;6.10;;;;;;;14.95;100.00;100997.19;5100130;28;20042;-79
2023/05/15 03:04:09;;;;;;;8.52;5.15;;;;;;;15.59;100.00;101010.09;5115850;28;20359;-77
2023/05/15 03:06:55;;;;;;;7.43;5.53;;;;;;;15.57;100.00;101006.59;5114974;28;20023;-79
2023/05/15 03:09:41;;;;;;;8.43;5.70;;;;;;;15.16;100.00;100993.84;5115817;28;20340;-79
2023/05/15 03:12:27;;;;;;;11.23;6.20;;;;;;;15.22;100.00;100980.47;5116159;28;20093;-78
2023/05/15 03:15:13;;;;;;;8.55;5.90;;;;;;;15.08;100.00;100974.75;5114456;28;20039;-79
2023/05/15 03:17:59;;;;;;;9.60;5.70;;;;;;;14.97;100.00;100972.47;5099815;28;20027;-79
2023/05/15 03:20:47;;;;;;;13.27;6.03;;;;;;;15.08;100.00;100977.41;5114121;28;20045;-79
2023/05/15 03:23:33;;;;;;;10.52;6.00;;;;;;;15.80;100.00;100965.31;5100074;28;20023;-78
2023/05/15 03:26:18;;;;;;;10.32;6.10;;;;;;;15.62;100.00;100965.94;5115112;28;20028;-78
2023/05/15 03:29:04;;;;;;;9.82;6.07;;;;;;;15.77;100.00;100957.50;5115186;28;20051;-79
2023/05/15 03:31:50;;;;;;;10.00;6.55;;;;;;;15.56;100.00;100966.16;5101044;28;20104;-79
2023/05/15 03:34:36;;;;;;;10.30;6.45;;;;;;;15.34;100.00;100964.25;5114164;28;20028;-79
2023/05/15 03:37:22;;;;;;;11.30;6.65;;;;;;;15.34;100.00;100959.81;5114972;28;20027;-79
2023/05/15 03:40:08;;;;;;;11.98;6.10;;;;;;;15.34;100.00;100959.81;5099582;28;20123;-79
2023/05/15 03:42:54;;;;;;;14.65;6.50;;;;;;;16.10;100.00;100956.28;5115154;28;20032;-78
2023/05/15 03:45:39;;;;;;;8.85;6.72;;;;;;;15.76;100.00;100968.09;5114631;28;20344;-78
2023/05/15 03:48:25;;;;;;;13.13;7.20;;;;;;;15.43;100.00;100970.09;5104415;28;20440;-78
2023/05/15 03:51:11;;;;;;;11.65;6.68;;;;;;;15.45;100.00;100965.63;5118267;28;20075;-79
2023/05/15 03:53:56;;;;;;;13.05;7.00;;;;;;;15.63;100.00;100966.81;5119331;28;20462;-79
2023/05/15 03:56:42;;;;;;;12.55;6.68;;;;;;;16.13;100.00;100971.16;5103827;28;20032;-79
2023/05/15 03:59:28;;;;;;;11.98;6.15;;;;;;;16.05;100.00;100967.94;5117923;28;20028;-80
2023/05/15 04:02:14;;;;;;;8.32;6.22;;;;;;;15.51;100.00;100983.06;5118277;28;20020;-80
2023/05/15 04:05:00;;;;;;;8.95;5.70;;;;;;;15.51;100.00;100993.63;5103448;28;20084;-79
2023/05/15 04:07:46;;;;;;;11.48;6.00;;;;;;;15.47;100.00;100986.72;5104345;28;20459;-78
2023/05/15 04:10:32;;;;;;;11.05;5.75;;;;;;;-140.66;100.00;55571.53;5120727;28;20080;-78
2023/05/15 04:13:18;;;;;;;9.02;6.03;;;;;;;-140.66;100.00;55571.53;5122912;28;20110;-78
2023/05/15 04:16:07;;;;;;;9.48;5.72;;;;;;;-140.66;100.00;55571.53;5121649;28;20023;-77
2023/05/15 04:18:53;;;;;;;10.95;6.05;;;;;;;-140.66;100.00;55571.53;5105913;28;20023;-78
2023/05/15 04:21:38;;;;;;;10.20;5.57;;;;;;;-140.66;100.00;55571.53;5121340;28;20020;-76
2023/05/15 04:24:24;;;;;;;12.13;5.88;;;;;;;-140.66;100.00;55571.53;5120330;28;20027;-78
2023/05/15 04:27:10;;;;;;;11.93;6.03;;;;;;;-140.66;100.00;55571.53;5106221;28;20034;-76
2023/05/15 04:29:56;;;;;;;12.52;6.38;;;;;;;-140.66;100.00;55571.53;5118282;28;20030;-78
2023/05/15 04:32:42;;;;;;;12.68;6.75;;;;;;;-140.66;100.00;55571.53;5104144;28;20037;-79
2023/05/15 04:35:28;;;;;;;10.30;6.32;;;;;;;-140.66;100.00;55571.53;5103275;28;20452;-78
2023/05/15 04:38:13;;;;;;;17.65;6.55;;;;;;;-140.66;100.00;55571.53;5117532;28;20081;-79
2023/05/15 04:41:00;;;;;;;13.02;6.00;;;;;;;-140.66;100.00;55571.53;5103532;28;20088;-78
2023/05/15 04:43:45;;;;;;;14.90;6.60;;;;;;;-140.66;100.00;55571.53;5130348;28;20024;-79
2023/05/15 04:46:33;;;;;;;9.38;6.38;;;;;;;-140.66;100.00;55571.53;5105656;28;20111;-79
2023/05/15 04:49:19;;;;;;;13.90;7.05;;;;;;;-140.66;100.00;55571.53;5117611;28;20031;-78
2023/05/15 04:52:04;;;;;;;11.48;6.40;;;;;;;-140.66;100.00;55571.53;5103710;28;20424;-78
2023/05/15 04:54:51;;;;;;;16.70;6.95;;;;;;;-140.66;100.00;55571.53;5116799;28;20038;-79
2023/05/15 04:57:37;;;;;;;23.98;6.68;;;;;;;-140.66;100.00;55571.53;5101719;28;20035;-77
2023/05/15 05:00:23;;;;;;;11.43;6.78;;;;;;;-140.66;100.00;55571.53;5102387;28;20019;-78
2023/05/15 05:03:09;;;;;;;8.98;6.50;;;;;;;-140.66;100.00;55571.53;5123769;28;20042;-78
2023/05/15 05:05:55;;;;;;;14.57;6.88;;;;;;;-140.66;100.00;55571.53;5122732;28;20154;-79
2023/05/15 05:08:40;;;;;;;13.10;7.20;;;;;;;-140.66;100.00;55571.53;5117455;28;20012;-78
2023/05/15 05:11:26;;;;;;;12.85;6.78;;;;;;;-140.66;100.00;55571.53;5102255;28;20028;-79
2023/05/15 05:14:14;;;;;;;17.85;6.63;;;;;;;-140.66;100.00;55571.53;5102469;28;20043;-78
2023/05/15 05:17:00;;;;;;;14.32;6.80;;;;;;;-140.66;100.00;55571.53;5102452;28;20452;-78
2023/05/15 05:19:45;;;;;;;13.50;6.45;;;;;;;-140.66;100.00;55571.53;5117037;28;20043;-78
2023/05/15 05:22:31;;;;;;;16.33;6.55;;;;;;;-140.66;100.00;55571.53;5101769;28;20360;-77
2023/05/15 05:25:17;;;;;;;17.75;7.32;;;;;;;-140.66;100.00;55571.53;5116473;28;20309;-78
2023/05/15 05:28:03;;;;;;;16.10;7.05;;;;;;;-140.66;100.00;55571.53;5116359;28;20040;-77
2023/05/15 05:30:50;;;;;;;18.23;8.23;;;;;;;-140.66;100.00;55571.53;5117381;28;20028;-80
2023/05/15 05:33:36;;;;;;;11.77;6.90;;;;;;;-140.66;100.00;55571.53;5116537;28;20024;-78
2023/05/15 05:36:21;;;;;;;11.20;6.30;;;;;;;-140.66;100.00;55571.53;5117127;28;20038;-78
2023/05/15 05:39:07;;;;;;;12.48;6.93;;;;;;;-140.66;100.00;55571.53;5116638;28;20054;-78
2023/05/15 05:41:53;;;;;;;13.98;6.15;;;;;;;-140.66;100.00;55571.53;5102176;28;20024;-79
2023/05/15 05:44:38;;;;;;;9.77;5.40;;;;;;;-140.66;100.00;55571.53;5101524;28;20031;-78
2023/05/15 05:47:24;;;;;;;8.35;5.13;;;;;;;-140.66;100.00;55571.53;5116563;28;20035;-78
2023/05/15 05:50:10;;;;;;;7.55;5.20;;;;;;;-140.66;100.00;55571.53;5101485;28;20035;-76
2023/05/15 05:52:56;;;;;;;9.32;4.88;;;;;;;-140.66;100.00;55571.53;5090317;28;20035;-77
2023/05/15 05:55:42;;;;;;;6.32;4.70;;;;;;;-140.66;100.00;55571.53;5104871;28;20043;-77
2023/05/15 05:58:28;;;;;;;11.70;5.15;;;;;;;-140.66;100.00;55571.53;5107116;28;20038;-78
2023/05/15 06:01:13;;;;;;;11.25;5.82;;;;;;;-140.66;100.00;55571.53;5106995;28;20413;-78
2023/05/15 06:04:02;;;;;;;6.65;4.45;;;;;;;-140.66;100.00;55571.53;5107023;28;20059;-77
2023/05/15 06:06:48;;;;;;;12.80;5.35;;;;;;;-140.66;100.00;55571.53;5105247;28;20106;-76
2023/05/15 06:09:34;;;;;;;11.70;8.18;;;;;;;-140.66;100.00;55571.53;5090175;28;20027;-77
2023/05/15 06:12:20;;;;;;;8.15;4.53;;;;;;;-140.66;100.00;55571.53;5090825;28;20110;-78
2023/05/15 06:15:07;;;;;;;15.50;6.10;;;;;;;-140.66;100.00;55571.53;5106582;28;20028;-77
2023/05/15 06:17:52;;;;;;;12.20;5.68;;;;;;;-140.66;100.00;55571.53;5090433;28;20971;-77
2023/05/15 06:20:38;;;;;;;8.50;4.30;;;;;;;-140.66;100.00;55571.53;5106713;28;20115;-77
2023/05/15 06:23:24;;;;;;;7.57;4.00;;;;;;;-140.66;100.00;55571.53;5090961;28;20032;-77
2023/05/15 06:26:10;;;;;;;8.73;4.28;;;;;;;-140.66;100.00;55571.53;5090999;28;20045;-77
2023/05/15 06:28:56;;;;;;;10.50;5.15;;;;;;;-140.66;100.00;55571.53;5089146;28;20090;-78
2023/05/15 06:31:41;;;;;;;7.00;4.80;;;;;;;-140.66;100.00;55571.53;5117816;27;20031;-77
2023/05/15 06:34:27;;;;;;;13.43;4.68;;;;;;;-140.66;100.00;55571.53;5090776;28;20038;-77
2023/05/15 06:37:13;;;;;;;10.98;4.40;;;;;;;-140.66;100.00;55571.53;5090461;28;20071;-78
2023/05/15 06:39:59;;;;;;;8.15;4.43;;;;;;;-140.66;100.00;55571.53;5089899;28;20031;-79
2023/05/15 06:42:46;;;;;;;6.20;4.40;;;;;;;-140.66;100.00;55571.53;5105444;28;20119;-78
2023/05/15 06:45:31;;;;;;;9.75;4.18;;;;;;;-140.66;100.00;55571.53;5106470;28;20407;-78
2023/05/15 06:48:17;;;;;;;6.70;4.22;;;;;;;-140.66;100.00;55571.53;5104130;28;20034;-78
2023/05/15 06:51:03;;;;;;;5.75;3.83;;;;;;;-140.66;100.00;55571.53;5090848;28;20024;-78
2023/05/15 06:53:49;;;;;;;11.13;4.07;;;;;;;-140.66;100.00;55571.53;5105862;28;20028;-77
2023/05/15 06:56:34;;;;;;;9.02;4.70;;;;;;;-140.66;100.00;55571.53;5105995;28;20398;-77
2023/05/15 06:59:20;;;;;;;7.20;4.03;;;;;;;-140.66;100.00;55571.53;5104440;28;20112;-78
2023/05/15 07:02:06;;;;;;;7.15;4.65;;;;;;;-140.66;100.00;55571.53;5104869;28;20466;-77
2023/05/15 07:04:52;;;;;;;7.82;4.70;;;;;;;-140.66;100.00;55571.53;5104139;28;20040;-78
2023/05/15 07:07:37;;;;;;;14.77;5.38;;;;;;;-140.66;100.00;55571.53;5104289;28;20050;-77
2023/05/15 07:10:23;;;;;;;16.05;4.85;;;;;;;-140.66;100.00;55571.53;5090085;28;20071;-77
2023/05/15 07:13:09;;;;;;;24.90;5.85;;;;;;;-140.66;100.00;55571.53;5105711;28;20016;-78
2023/05/15 07:15:55;;;;;;;8.45;5.40;;;;;;;-140.66;100.00;55571.53;5090743;28;20367;-77
2023/05/15 07:18:40;;;;;;;9.27;5.97;;;;;;;-140.66;100.00;55571.53;5088723;28;20028;-78
2023/05/15 07:21:26;;;;;;;9.82;3.80;;;;;;;-140.66;100.00;55571.53;5114641;28;20039;-76
2023/05/15 07:24:12;;;;;;;9.65;4.10;;;;;;;-140.66;100.00;55571.53;5105761;28;20449;-78
2023/05/15 07:26:58;;;;;;;13.85;4.15;;;;;;;-140.66;100.00;55571.53;5105995;28;20035;-76
2023/05/15 07:29:43;;;;;;;7.88;3.80;;;;;;;-140.66;100.00;55571.53;5103005;28;20039;-78
2023/05/15 07:32:29;;;;;;;6.88;3.65;;;;;;;-140.66;100.00;55571.53;5105580;28;20031;-76
2023/05/15 07:35:15;;;;;;;9.23;4.30;;;;;;;-140.66;100.00;55571.53;5089809;28;20102;-76
2023/05/15 07:38:01;;;;;;;10.88;4.60;;;;;;;-140.66;100.00;55571.53;5076468;28;20403;-77
2023/05/15 07:40:47;;;;;;;14.32;4.40;;;;;;;-140.66;100.00;55571.53;5109022;28;20104;-78
2023/05/15 07:43:32;;;;;;;9.77;4.18;;;;;;;-140.66;100.00;55571.53;5105836;28;20027;-78
2023/05/15 07:46:18;;;;;;;8.32;4.60;;;;;;;-140.66;100.00;55571.53;5090011;28;20031;-77
2023/05/15 07:49:04;;;;;;;5.90;4.10;;;;;;;-140.66;100.00;55571.53;5103467;28;20373;-77
2023/05/15 07:51:50;;;;;;;5.90;3.70;;;;;;;-140.66;100.00;55571.53;5089609;28;20058;-78
2023/05/15 07:54:36;;;;;;;12.52;4.78;;;;;;;-140.66;100.00;55571.53;5105663;28;20038;-77
2023/05/15 07:57:22;;;;;;;9.13;4.20;;;;;;;-140.66;100.00;55571.53;5104566;28;20032;-77
2023/05/15 08:00:12;;;;;;;8.18;4.22;;;;;;;-140.66;100.00;55571.53;5089140;28;20023;-77
2023/05/15 08:02:58;;;;;;;8.80;4.50;;;;;;;-140.66;100.00;55571.53;5091062;28;20038;-77
2023/05/15 08:05:44;;;;;;;5.72;4.40;;;;;;;-140.66;100.00;55571.53;5104355;28;20063;-78
2023/05/15 08:08:30;;;;;;;11.30;4.53;;;;;;;-140.66;100.00;55571.53;5102816;28;20136;-77
2023/05/15 08:11:16;;;;;;;12.07;4.72;;;;;;;-140.66;100.00;55571.53;5103976;28;20356;-77
2023/05/15 08:14:02;;;;;;;8.10;4.10;;;;;;;-140.66;100.00;55571.53;5103795;28;20042;-78
2023/05/15 08:16:49;;;;;;;11.88;4.50;;;;;;;-140.66;100.00;55571.53;5088917;28;20031;-77
2023/05/15 08:19:34;;;;;;;6.93;4.40;;;;;;;-140.66;100.00;55571.53;5088534;28;20035;-76
2023/05/15 08:22:20;;;;;;;9.25;4.55;;;;;;;-140.66;100.00;55571.53;5089961;28;20341;-76
2023/05/15 08:25:07;;;;;;;8.50;4.25;;;;;;;-140.66;100.00;55571.53;5089617;28;20031;-77
2023/05/15 08:27:53;;;;;;;7.53;4.18;;;;;;;-140.66;100.00;55571.53;5087460;28;20250;-76
2023/05/15 08:30:39;;;;;;;6.25;3.80;;;;;;;-140.66;100.00;55571.53;5103496;28;20034;-76
2023/05/15 08:33:24;;;;;;;6.60;4.20;;;;;;;-140.66;100.00;55571.53;5118472;27;20023;-77
2023/05/15 08:36:10;;;;;;;15.82;5.05;;;;;;;-140.66;100.00;55571.53;5093639;28;20054;-77
2023/05/15 08:38:56;;;;;;;8.32;4.07;;;;;;;-140.66;100.00;55571.53;5091924;28;20036;-78
2023/05/15 08:42:17;;;;;;;10.73;4.40;;;;;;;-140.66;100.00;55571.53;5106586;28;20026;-78
2023/05/15 08:45:05;;;;;;;6.32;4.00;;;;;;;-140.66;100.00;55571.53;5108836;28;20415;-78
2023/05/15 08:47:52;;;;;;;7.38;3.63;;;;;;;-140.66;100.00;55571.53;5107090;28;21048;-78
2023/05/15 08:50:39;;;;;;;12.90;4.20;;;;;;;-140.66;100.00;55571.53;5108976;28;20051;-77
2023/05/15 08:53:25;;;;;;;11.13;4.32;;;;;;;-140.66;100.00;55571.53;5108054;28;20106;-79
2023/05/15 08:56:11;;;;;;;8.38;4.20;;;;;;;-140.66;100.00;55571.53;5092694;28;20024;-78
2023/05/15 08:58:57;;;;;;;9.60;4.15;;;;;;;-140.66;100.00;55571.53;5092117;28;20040;-78
2023/05/15 09:01:43;;;;;;;10.07;3.90;;;;;;;-140.66;100.00;55571.53;5092387;28;20019;-79
2023/05/15 09:04:28;;;;;;;7.10;3.80;;;;;;;-140.66;100.00;55571.53;5093390;28;20028;-77
2023/05/15 09:07:14;;;;;;;6.13;3.83;;;;;;;-140.66;100.00;55571.53;5107744;28;20039;-78
2023/05/15 09:10:02;;;;;;;8.07;3.60;;;;;;;-140.66;100.00;55571.53;5091400;28;20036;-78
2023/05/15 09:12:50;;;;;;;7.15;4.22;;;;;;;-140.66;100.00;55571.53;5092471;28;20027;-78
2023/05/15 09:15:36;;;;;;;9.98;4.20;;;;;;;-140.66;100.00;55571.53;5092655;28;20110;-79
2023/05/15 09:18:23;;;;;;;6.93;3.88;;;;;;;-140.66;100.00;55571.53;5090673;28;20086;-78
2023/05/15 09:21:30;;;;;;;10.05;4.22;;;;;;;-140.66;100.00;55571.53;5092691;28;20028;-79
2023/05/15 09:24:17;;;;;;;9.55;3.80;;;;;;;-140.66;100.00;55571.53;5092371;28;20035;-79
2023/05/15 09:27:07;;;;;;;6.50;3.60;;;;;;;-140.66;100.00;55571.53;5092958;28;20056;-78
2023/05/15 09:29:55;;;;;;;6.63;3.92;;;;;;;-140.66;100.00;55571.53;5091344;28;20036;-78
2023/05/15 09:32:41;;;;;;;7.22;3.78;;;;;;;-140.66;100.00;55571.53;5107958;28;20084;-77
2023/05/15 09:35:30;;;;;;;9.23;4.65;;;;;;;-140.66;100.00;55571.53;5107375;28;20035;-77
2023/05/15 09:38:17;;;;;;;6.60;3.70;;;;;;;-140.66;100.00;55571.53;5104653;28;20130;-79
2023/05/15 09:41:05;;;;;;;5.28;3.47;;;;;;;-140.66;100.00;55571.53;5093090;28;20032;-78
2023/05/15 09:43:55;;;;;;;12.68;4.40;;;;;;;-140.66;100.00;55571.53;5091643;28;20046;-78
2023/05/15 09:46:45;;;;;;;15.50;3.88;;;;;;;-140.66;100.00;55571.53;5107107;28;20019;-78
2023/05/15 09:49:31;;;;;;;7.85;3.72;;;;;;;-140.66;100.00;55571.53;5090728;28;20035;-78
2023/05/15 09:52:17;;;;;;;9.13;3.92;;;;;;;-140.66;100.00;55571.53;5091991;28;20066;-79
2023/05/15 09:55:08;;;;;;;9.38;4.10;;;;;;;-140.66;100.00;55571.53;5108497;28;20066;-78
2023/05/15 09:58:14;;;;;;;7.93;4.03;;;;;;;-140.66;100.00;55571.53;5090702;28;20031;-77
2023/05/15 10:01:01;;;;;;;5.25;3.30;;;;;;;-140.66;100.00;55571.53;5091929;28;20039;-77
2023/05/15 10:03:58;;;;;;;8.88;3.60;;;;;;;-140.66;100.00;55571.53;5106500;28;20028;-78
2023/05/15 10:06:47;;;;;;;8.65;3.80;;;;;;;-140.66;100.00;55571.53;5091016;28;20023;-78
2023/05/15 10:09:32;;;;;;;12.98;4.07;;;;;;;-140.66;100.00;55571.53;5105629;28;20523;-77
2023/05/15 10:12:18;;;;;;;9.40;4.35;;;;;;;-140.66;100.00;55571.53;5105208;28;20023;-78
2023/05/15 10:15:05;;;;;;;12.00;3.92;;;;;;;-140.66;100.00;55571.53;5107200;28;20495;-78
2023/05/15 10:17:52;;;;;;;5.75;3.67;;;;;;;-140.66;100.00;55571.53;5088818;28;20039;-78
2023/05/15 10:20:37;;;;;;;10.52;3.58;;;;;;;-140.66;100.00;55571.53;5106085;28;20367;-76
2023/05/15 10:23:24;;;;;;;7.38;3.65;;;;;;;-140.66;100.00;55571.53;5104994;28;20353;-77
2023/05/15 10:26:27;;;;;;;6.32;3.63;;;;;;;-140.66;100.00;55571.53;5107780;28;20035;-78
2023/05/15 10:29:20;;;;;;;7.63;3.30;;;;;;;-140.66;100.00;55571.53;5089459;28;20091;-76
2023/05/15 10:32:06;;;;;;;7.30;3.55;;;;;;;-140.66;100.00;55571.53;5090178;28;20107;-77
2023/05/15 10:34:53;;;;;;;8.43;3.92;;;;;;;-140.66;100.00;55571.53;5090725;28;20119;-77
2023/05/15 10:37:39;;;;;;;12.63;4.22;;;;;;;-140.66;100.00;55571.53;5105320;28;20043;-78
2023/05/15 10:40:27;;;;;;;9.32;3.72;;;;;;;-140.66;100.00;55571.53;5090914;28;20043;-78
2023/05/15 10:43:13;;;;;;;5.90;3.55;;;;;;;-140.66;100.00;55571.53;5105885;28;20024;-77
2023/05/15 10:45:59;;;;;;;7.72;3.42;;;;;;;-140.66;100.00;55571.53;5109234;28;20391;-77
2023/05/15 10:48:45;;;;;;;9.32;4.10;;;;;;;-140.66;100.00;55571.53;5110094;28;20023;-80
2023/05/15 10:51:32;;;;;;;5.07;3.47;;;;;;;-140.66;100.00;55571.53;5100732;28;20091;-78
2023/05/15 10:54:18;;;;;;;8.25;3.90;;;;;;;-140.66;100.00;55571.53;5110586;28;20087;-71
2023/05/15 10:57:05;;;;;;;8.55;3.40;;;;;;;-140.66;100.00;55571.53;5099163;28;20368;-77
2023/05/15 10:59:51;;;;;;;12.02;3.63;;;;;;;-140.66;100.00;55571.53;5106735;28;20117;-78
2023/05/15 11:02:38;;;;;;;13.68;5.10;;;;;;;-140.66;100.00;55571.53;5092044;28;20024;-72
2023/05/15 11:05:24;;;;;;;6.47;3.50;;;;;;;-140.66;100.00;55571.53;5090794;28;20035;-78
2023/05/15 11:08:20;;;;;;;6.50;3.33;;;;;;;-140.66;100.00;55571.53;5119221;28;20028;-79
2023/05/15 11:11:06;;;;;;;4.68;3.00;;;;;;;-140.66;100.00;55571.53;5118797;27;20035;-78
2023/05/15 11:14:19;;;;;;;17.60;4.72;;;;;;;-140.66;100.00;55571.53;5105105;28;20106;-80
2023/05/15 11:17:10;;;;;;;6.93;3.40;;;;;;;-140.66;100.00;55571.53;5090776;28;20647;-78
2023/05/15 11:19:57;;;;;;;8.30;3.58;;;;;;;-140.66;100.00;55571.53;5102383;28;20043;-79
2023/05/15 11:22:57;;;;;;;6.70;3.40;;;;;;;-140.66;100.00;55571.53;5103359;28;20367;-79
2023/05/15 11:25:52;;;;;;;7.93;3.33;;;;;;;-140.66;100.00;55571.53;5089831;28;20031;-79
2023/05/15 11:28:42;;;;;;;8.50;3.38;;;;;;;-140.66;100.00;55571.53;5089101;28;20090;-78
2023/05/15 11:31:31;;;;;;;8.18;3.10;;;;;;;-140.66;100.00;55571.53;5091009;28;20387;-79
2023/05/15 11:34:32;;;;;;;5.85;3.30;;;;;;;-140.66;100.00;55571.53;5089396;28;20332;-79
2023/05/15 11:37:19;;;;;;;10.23;3.00;;;;;;;-140.66;100.00;55571.53;5089767;28;20027;-79
2023/05/15 11:40:06;;;;;;;6.75;3.08;;;;;;;-140.66;100.00;55571.53;5105278;28;20036;-80
2023/05/15 11:43:19;;;;;;;8.02;3.28;;;;;;;-140.66;100.00;55571.53;5103383;28;20121;-76
2023/05/15 11:46:11;;;;;;;5.57;3.33;;;;;;;-140.66;100.00;55571.53;5105627;28;20039;-76
2023/05/15 11:48:57;;;;;;;5.88;2.92;;;;;;;-140.66;100.00;55571.53;5102979;28;20825;-77
2023/05/15 11:51:43;;;;;;;6.60;3.33;;;;;;;-140.66;100.00;55571.53;5104697;28;20471;-76
2023/05/15 11:54:32;;;;;;;9.23;3.53;;;;;;;-140.66;100.00;55571.53;5103753;28;20034;-77
2023/05/15 11:57:19;;;;;;;6.18;3.08;;;;;;;-140.66;100.00;55571.53;5089390;28;20020;-76
2023/05/15 12:00:08;;;;;;;12.45;3.67;;;;;;;-140.66;100.00;55571.53;5102714;28;20465;-76
2023/05/15 12:02:54;;;;;;;9.65;3.60;;;;;;;-140.66;100.00;55571.53;5104882;28;20108;-75
2023/05/15 12:05:41;;;;;;;12.05;3.50;;;;;;;-140.66;100.00;55571.53;5104154;28;20042;-77
2023/05/15 12:08:34;;;;;;;13.35;4.38;;;;;;;-140.66;100.00;55571.53;5105363;28;20232;-78
2023/05/15 12:11:22;;;;;;;8.95;3.72;;;;;;;-140.66;100.00;55571.53;5107781;28;20026;-75
2023/05/15 12:14:11;;;;;;;6.22;3.10;;;;;;;-140.66;100.00;55571.53;5106179;28;20023;-79
2023/05/15 12:17:03;;;;;;;12.98;3.30;;;;;;;-140.66;100.00;55571.53;5108091;28;20383;-77
2023/05/15 12:19:50;;;;;;;9.65;3.70;;;;;;;-140.66;100.00;55571.53;5087289;28;20125;-78
2023/05/15 12:22:48;;;;;;;5.90;2.85;;;;;;;-140.66;100.00;55571.53;5109050;28;20379;-77
2023/05/15 12:25:36;;;;;;;7.30;3.92;;;;;;;-140.66;100.00;55571.53;5108791;28;20032;-78
2023/05/15 12:28:22;;;;;;;10.15;4.00;;;;;;;-140.66;100.00;55571.53;5105821;28;20454;-78
2023/05/15 12:31:10;;;;;;;12.23;4.10;;;;;;;-140.66;100.00;55571.53;5108380;28;20084;-78
2023/05/15 12:33:56;;;;;;;13.23;3.70;;;;;;;-140.66;100.00;55571.53;5108029;28;20035;-77
2023/05/15 12:36:42;;;;;;;9.38;3.30;;;;;;;-140.66;100.00;55571.53;5108307;28;20050;-80
2023/05/15 12:39:28;;;;;;;8.05;3.55;;;;;;;-140.66;100.00;55571.53;5106656;28;20050;-78
2023/05/15 12:42:13;;;;;;;8.02;3.53;;;;;;;-140.66;100.00;55571.53;5108510;28;20444;-79